Terminal Aerodrome Forecast
Issued by NWS North Platte, NE

Home | Current Version | Previous Version | Graphics & Text | Print | Product List | Glossary On
Versions: 1 2 3 4 5 6 7 8 9 10 11 12 13 14
000
FTUS43 KLBF 012300
TAFVTN
TAF
KVTN 012320Z 0200/0224 16015G24KT P6SM SCT200
     FM020200 17014KT P6SM SCT050 SCT150
     FM020700 17014KT P6SM VCTS SCT050CB BKN150
     FM020900 17015KT P6SM SCT011 BKN200
      TEMPO 0212/0214 BKN011
     FM021400 18016G26KT P6SM SCT200=

USA.gov is the U.S. government's official web portal to all federal, state and local government web resources and services.